createdAt,value
2022-12-15T00:00:15.020Z,25.98
2022-12-15T00:03:00.003Z,29.15
2022-12-15T00:05:49.947Z,26.52
2022-12-15T00:08:35.545Z,24.67
2022-12-15T00:11:20.974Z,31.10
2022-12-15T00:14:05.692Z,27.75
2022-12-15T00:16:52.578Z,31.15
2022-12-15T00:19:37.373Z,17.70
2022-12-15T00:22:23.102Z,28.10
2022-12-15T00:25:07.988Z,33.55
2022-12-15T00:27:53.090Z,29.15
2022-12-15T00:30:37.932Z,25.80
2022-12-15T00:33:28.148Z,23.88
2022-12-15T00:36:13.710Z,30.20
2022-12-15T00:38:47.660Z,21.95
2022-12-15T00:41:16.560Z,20.90
2022-12-15T00:43:44.460Z,25.83
2022-12-15T00:46:29.589Z,25.30
2022-12-15T00:48:58.568Z,26.75
2022-12-15T00:51:45.860Z,23.02
2022-12-15T00:54:30.674Z,20.30
2022-12-15T00:57:15.483Z,22.27
2022-12-15T01:00:00.556Z,19.40
2022-12-15T01:02:46.083Z,22.70
2022-12-15T01:05:32.823Z,20.27
2022-12-15T01:08:18.174Z,21.02
2022-12-15T01:11:03.071Z,29.45
2022-12-15T01:13:49.893Z,22.95
2022-12-15T01:16:35.092Z,26.38
2022-12-15T01:19:20.656Z,21.83
2022-12-15T01:21:49.931Z,22.88
2022-12-15T01:24:17.570Z,17.65
2022-12-15T01:26:45.284Z,17.67
2022-12-15T01:29:12.945Z,24.45
2022-12-15T01:31:40.502Z,20.80
2022-12-15T01:34:08.117Z,15.32
2022-12-15T01:36:35.611Z,20.90
2022-12-15T01:39:04.655Z,18.75
2022-12-15T01:41:31.158Z,24.92
2022-12-15T01:44:13.547Z,26.52
2022-12-15T01:46:41.195Z,24.10
2022-12-15T01:49:12.929Z,24.75
2022-12-15T01:51:41.573Z,16.98
2022-12-15T01:54:14.255Z,22.02
2022-12-15T01:56:44.603Z,24.25
2022-12-15T01:59:15.078Z,21.65
2022-12-15T02:01:42.759Z,23.00
2022-12-15T02:04:10.355Z,20.55
2022-12-15T02:06:37.945Z,20.30
2022-12-15T02:09:05.894Z,21.00
2022-12-15T02:11:43.969Z,22.58
2022-12-15T02:14:12.219Z,14.55
2022-12-15T02:16:44.685Z,16.63
2022-12-15T02:19:20.182Z,24.10
2022-12-15T02:21:52.883Z,18.25
2022-12-15T02:24:38.015Z,19.55
2022-12-15T02:27:14.161Z,22.17
2022-12-15T02:29:59.349Z,27.05
2022-12-15T02:32:30.267Z,28.73
2022-12-15T02:35:00.811Z,18.60
2022-12-15T02:37:30.088Z,24.02
2022-12-15T02:39:57.700Z,28.77
2022-12-15T02:42:26.285Z,18.40
2022-12-15T02:44:55.329Z,20.02
2022-12-15T02:47:32.767Z,14.50
2022-12-15T02:50:11.605Z,16.67
2022-12-15T02:52:43.391Z,22.02
2022-12-15T02:55:16.840Z,20.48
2022-12-15T02:57:49.242Z,20.02
2022-12-15T03:00:18.182Z,24.48
2022-12-15T03:02:52.042Z,24.50
2022-12-15T03:07:49.815Z,23.35
2022-12-15T03:10:17.449Z,13.52
2022-12-15T03:12:45.168Z,19.65
2022-12-15T03:15:12.720Z,28.05
2022-12-15T03:17:40.478Z,23.60
2022-12-15T03:20:10.279Z,20.45
2022-12-15T03:22:38.199Z,18.35
2022-12-15T03:25:06.372Z,19.27
2022-12-15T03:27:34.040Z,14.13
2022-12-15T03:30:01.659Z,24.20
2022-12-15T03:32:29.214Z,14.63
2022-12-15T03:34:56.755Z,18.95
2022-12-15T03:37:25.589Z,19.13
2022-12-15T03:39:53.197Z,20.23
2022-12-15T03:42:40.762Z,18.33
2022-12-15T03:45:08.709Z,18.80
2022-12-15T03:47:36.309Z,23.65
2022-12-15T03:50:03.981Z,14.73
2022-12-15T03:52:32.876Z,11.77
2022-12-15T03:55:00.538Z,15.93
2022-12-15T03:57:28.097Z,19.20
2022-12-15T03:59:56.027Z,13.57
2022-12-15T04:02:23.824Z,19.63
2022-12-15T04:04:51.662Z,18.15
2022-12-15T04:07:19.258Z,23.02
2022-12-15T04:09:48.152Z,17.10
2022-12-15T04:12:15.657Z,22.23
2022-12-15T04:14:43.527Z,29.95
2022-12-15T04:17:11.516Z,21.27
2022-12-15T04:19:56.832Z,18.20
2022-12-15T04:22:24.670Z,18.92
2022-12-15T04:25:11.407Z,21.48
2022-12-15T04:28:01.402Z,21.10
2022-12-15T04:30:46.984Z,19.35
2022-12-15T04:33:32.739Z,20.40
2022-12-15T04:36:18.060Z,17.17
2022-12-15T04:39:03.236Z,21.70
2022-12-15T04:41:52.022Z,17.02
2022-12-15T04:44:36.932Z,19.42
2022-12-15T04:47:22.269Z,14.50
2022-12-15T04:50:10.144Z,13.48
2022-12-15T04:52:54.972Z,16.05
2022-12-15T04:55:40.388Z,15.00
2022-12-15T04:58:27.156Z,15.18
2022-12-15T05:01:12.629Z,11.35
2022-12-15T05:04:00.961Z,19.15
2022-12-15T05:06:47.810Z,16.67
2022-12-15T05:09:32.713Z,18.35
2022-12-15T05:12:17.537Z,24.33
2022-12-15T05:15:11.886Z,20.90
2022-12-15T05:18:01.839Z,21.75
2022-12-15T05:20:46.656Z,19.80
2022-12-15T05:23:35.208Z,13.32
2022-12-15T05:26:20.147Z,16.00
2022-12-15T05:29:05.716Z,11.93
2022-12-15T05:31:52.842Z,22.20
2022-12-15T05:34:24.719Z,11.02
2022-12-15T05:37:16.459Z,15.52
2022-12-15T05:39:45.083Z,15.45
2022-12-15T05:42:13.483Z,20.13
2022-12-15T05:44:41.627Z,17.30
2022-12-15T05:47:12.859Z,14.05
2022-12-15T05:49:47.555Z,28.42
2022-12-15T05:52:19.236Z,21.80
2022-12-15T05:54:47.701Z,20.10
2022-12-15T05:57:15.779Z,22.83
2022-12-15T05:59:43.858Z,22.48
2022-12-15T06:02:13.196Z,25.90
2022-12-15T06:04:42.823Z,23.13
2022-12-15T06:07:11.137Z,20.35
2022-12-15T06:09:42.357Z,15.90
2022-12-15T06:12:13.267Z,21.58
2022-12-15T06:14:41.215Z,24.63
2022-12-15T06:17:10.752Z,16.70
2022-12-15T06:19:40.177Z,23.02
2022-12-15T06:22:08.666Z,15.05
2022-12-15T06:24:43.810Z,36.33
2022-12-15T06:27:12.185Z,26.70
2022-12-15T06:29:49.465Z,22.27
2022-12-15T06:32:21.672Z,20.27
2022-12-15T06:34:51.383Z,21.35
2022-12-15T06:37:22.911Z,21.75
2022-12-15T06:40:06.322Z,27.70
2022-12-15T06:42:55.447Z,11.30
2022-12-15T06:45:32.932Z,35.95
2022-12-15T06:48:02.346Z,24.50
2022-12-15T06:50:35.503Z,21.30
2022-12-15T06:53:09.136Z,22.27
2022-12-15T06:55:49.421Z,22.88
2022-12-15T06:58:21.731Z,21.52
2022-12-15T07:00:50.051Z,20.08
2022-12-15T07:03:21.680Z,25.15
2022-12-15T07:06:09.067Z,26.00
2022-12-15T07:08:41.293Z,29.48
2022-12-15T07:11:11.840Z,21.55
2022-12-15T07:13:40.371Z,25.65
2022-12-15T07:16:12.718Z,30.48
2022-12-15T07:18:41.588Z,14.60
2022-12-15T07:21:13.021Z,27.08
2022-12-15T07:23:57.840Z,28.83
2022-12-15T07:26:26.712Z,27.70
2022-12-15T07:28:59.836Z,23.63
2022-12-15T07:31:30.374Z,22.02
2022-12-15T07:34:00.153Z,30.55
2022-12-15T07:36:39.769Z,26.77
2022-12-15T07:39:10.948Z,27.67
2022-12-15T07:41:41.743Z,27.48
2022-12-15T07:44:10.747Z,30.98
2022-12-15T07:46:41.533Z,25.58
2022-12-15T07:49:10.571Z,28.45
2022-12-15T07:51:40.998Z,27.08
2022-12-15T07:54:10.927Z,30.13
2022-12-15T07:56:39.462Z,28.45
2022-12-15T07:59:07.418Z,34.78
2022-12-15T08:01:36.264Z,22.15
2022-12-15T08:04:03.970Z,17.10
2022-12-15T08:06:31.629Z,28.13
2022-12-15T08:09:00.458Z,25.42
2022-12-15T08:11:28.194Z,37.72
2022-12-15T08:14:04.369Z,27.60
2022-12-15T08:16:34.666Z,20.00
2022-12-15T08:19:02.442Z,24.85
2022-12-15T08:21:31.291Z,32.95
2022-12-15T08:24:01.873Z,16.55
2022-12-15T08:26:31.053Z,32.83
2022-12-15T08:29:24.624Z,24.42
2022-12-15T08:31:50.293Z,26.92
2022-12-15T08:34:17.817Z,24.65
2022-12-15T08:36:46.081Z,29.23
2022-12-15T08:39:15.086Z,25.77
2022-12-15T08:41:42.823Z,21.33
2022-12-15T08:44:10.334Z,25.58
2022-12-15T08:46:38.011Z,26.13
2022-12-15T08:49:05.693Z,22.83
2022-12-15T08:51:33.760Z,21.55
2022-12-15T08:54:01.499Z,23.13
2022-12-15T08:56:32.482Z,27.17
2022-12-15T08:59:04.862Z,23.35
2022-12-15T09:01:33.243Z,24.75
2022-12-15T09:04:01.483Z,24.05
2022-12-15T09:06:30.717Z,21.52
2022-12-15T09:09:10.062Z,20.70
2022-12-15T09:12:01.100Z,26.00
2022-12-15T09:18:11.473Z,19.10
2022-12-15T09:20:39.238Z,21.33
2022-12-15T09:23:07.059Z,19.77
2022-12-15T09:25:35.032Z,22.70
2022-12-15T09:28:03.956Z,15.63
2022-12-15T09:30:31.555Z,26.80
2022-12-15T09:32:59.131Z,21.90
2022-12-15T09:35:27.423Z,24.20
2022-12-15T09:37:55.081Z,20.90
2022-12-15T09:40:22.568Z,20.52
2022-12-15T09:43:05.015Z,21.35
2022-12-15T09:45:44.367Z,29.73
2022-12-15T09:48:15.386Z,30.40
2022-12-15T09:50:43.506Z,24.17
2022-12-15T09:53:45.527Z,30.92
2022-12-15T09:56:04.740Z,23.25
2022-12-15T09:58:40.586Z,19.33
2022-12-15T10:01:13.790Z,21.90
2022-12-15T10:03:46.680Z,24.77
2022-12-15T10:06:21.484Z,26.25
2022-12-15T10:08:51.759Z,21.77
2022-12-15T10:11:25.388Z,30.02
2022-12-15T10:13:55.635Z,24.73
2022-12-15T10:16:27.290Z,28.58
2022-12-15T10:19:01.699Z,25.23
2022-12-15T10:21:30.267Z,24.00
2022-12-15T10:24:00.229Z,21.67
2022-12-15T10:26:31.946Z,18.80
2022-12-15T10:29:07.619Z,23.08
2022-12-15T10:31:42.287Z,24.45
2022-12-15T10:34:11.167Z,23.10
2022-12-15T10:36:38.772Z,21.40
2022-12-15T10:39:06.414Z,20.08
2022-12-15T10:41:34.720Z,34.55
2022-12-15T10:44:02.836Z,31.95
2022-12-15T10:46:32.002Z,25.38
2022-12-15T10:49:01.994Z,31.58
2022-12-15T10:51:31.600Z,26.80
2022-12-15T10:54:06.415Z,27.25
2022-12-15T10:56:34.819Z,24.98
2022-12-15T10:59:03.747Z,31.65
2022-12-15T11:01:32.509Z,26.92
2022-12-15T11:04:02.101Z,27.60
2022-12-15T11:06:30.415Z,27.17
2022-12-15T11:08:59.160Z,22.63
2022-12-15T11:11:45.996Z,23.20
2022-12-15T11:14:15.798Z,25.90
2022-12-15T11:16:46.030Z,21.42
2022-12-15T11:19:23.276Z,25.15
2022-12-15T11:21:54.197Z,26.63
2022-12-15T11:24:25.870Z,26.65
2022-12-15T11:26:58.433Z,23.17
2022-12-15T11:29:28.855Z,26.10
2022-12-15T11:32:01.419Z,27.05
2022-12-15T11:34:36.465Z,21.50
2022-12-15T11:37:24.326Z,21.80
2022-12-15T11:39:59.862Z,22.48
2022-12-15T11:42:35.059Z,18.95
2022-12-15T11:45:04.140Z,22.10
2022-12-15T11:47:36.632Z,22.70
2022-12-15T11:50:20.654Z,15.80
2022-12-15T11:52:55.759Z,18.88
2022-12-15T11:55:32.077Z,17.38
2022-12-15T11:58:07.512Z,16.65
2022-12-15T12:00:39.651Z,15.93
2022-12-15T12:03:22.987Z,14.93
2022-12-15T12:06:04.347Z,17.60
2022-12-15T12:08:51.381Z,15.07
2022-12-15T12:11:20.699Z,14.75
2022-12-15T12:13:54.282Z,13.18
2022-12-15T12:16:29.364Z,15.90
2022-12-15T12:18:59.407Z,14.13
2022-12-15T12:21:30.673Z,14.05
2022-12-15T12:24:00.919Z,12.05
2022-12-15T12:26:32.891Z,14.80
2022-12-15T12:29:03.676Z,10.48
2022-12-15T12:31:35.810Z,12.50
2022-12-15T12:34:05.424Z,12.30
2022-12-15T12:36:34.734Z,19.58
2022-12-15T12:39:02.448Z,13.00
2022-12-15T12:41:34.570Z,14.02
2022-12-15T12:44:07.483Z,14.02
2022-12-15T12:46:37.365Z,14.05
2022-12-15T12:49:07.560Z,18.42
2022-12-15T12:51:37.665Z,15.43
2022-12-15T12:54:11.805Z,19.70
2022-12-15T12:59:27.089Z,14.07
2022-12-15T13:01:56.126Z,21.75
2022-12-15T13:04:39.520Z,17.23
2022-12-15T13:07:28.670Z,16.35
2022-12-15T13:10:03.349Z,14.75
2022-12-15T13:12:51.163Z,17.35
2022-12-15T13:15:25.497Z,19.20
2022-12-15T13:40:02.048Z,26.88
2022-12-15T13:42:35.039Z,26.08
2022-12-15T13:47:31.390Z,19.13
2022-12-15T13:50:02.674Z,26.92
2022-12-15T13:53:16.724Z,28.58
2022-12-15T13:55:28.048Z,23.02
2022-12-15T13:57:58.290Z,23.27
2022-12-15T14:00:25.983Z,24.15
2022-12-15T14:03:07.166Z,23.40
2022-12-15T14:05:35.107Z,25.52
2022-12-15T14:08:10.827Z,27.27
2022-12-15T14:10:41.864Z,28.65
2022-12-15T14:16:03.094Z,28.95
2022-12-15T14:18:31.668Z,28.48
2022-12-15T14:20:59.284Z,22.77
2022-12-15T14:23:29.603Z,32.20
2022-12-15T14:26:04.026Z,25.52
2022-12-15T14:31:01.271Z,25.55
2022-12-15T14:33:29.925Z,32.83
2022-12-15T14:35:59.172Z,24.52
2022-12-15T14:38:29.299Z,27.63
2022-12-15T14:40:58.161Z,22.30
2022-12-15T14:43:28.863Z,23.10
2022-12-15T14:45:58.138Z,24.48
2022-12-15T14:48:44.821Z,27.95
2022-12-15T14:51:13.881Z,30.92
2022-12-15T14:53:42.078Z,27.77
2022-12-15T14:56:31.197Z,33.55
2022-12-15T14:59:03.939Z,30.10
2022-12-15T15:01:40.452Z,25.85
2022-12-15T15:03:05.834Z,25.98
2022-12-15T15:04:26.201Z,23.85
2022-12-15T15:06:55.175Z,33.38
2022-12-15T15:09:25.793Z,32.92
2022-12-15T15:11:55.597Z,25.42
2022-12-15T15:14:27.718Z,24.17
2022-12-15T15:17:05.970Z,32.00
2022-12-15T15:19:39.326Z,34.13
2022-12-15T15:22:09.039Z,22.13
2022-12-15T15:24:37.490Z,22.27
2022-12-15T15:27:24.009Z,27.10
2022-12-15T15:29:53.530Z,27.52
2022-12-15T15:32:22.226Z,28.17
2022-12-15T15:34:50.415Z,32.20
2022-12-15T15:37:19.272Z,33.85
2022-12-15T15:39:48.468Z,33.50
2022-12-15T15:42:16.340Z,33.47
2022-12-15T15:44:44.156Z,29.60
2022-12-15T15:47:20.400Z,34.50
2022-12-15T15:49:49.351Z,34.15
2022-12-15T15:52:17.377Z,37.92
2022-12-15T15:54:45.730Z,33.20
2022-12-15T15:57:34.074Z,32.88
2022-12-15T16:00:15.781Z,32.33
2022-12-15T16:02:45.307Z,36.13
2022-12-15T16:05:13.518Z,26.45
2022-12-15T16:07:42.655Z,31.35
2022-12-15T16:10:14.008Z,31.63
2022-12-15T16:12:44.371Z,31.92
2022-12-15T16:15:15.557Z,37.17
2022-12-15T16:17:47.852Z,37.33
2022-12-15T16:21:15.151Z,39.70
2022-12-15T16:23:18.180Z,34.35
2022-12-15T16:25:50.565Z,38.60
2022-12-15T16:28:19.259Z,40.40
2022-12-15T16:30:47.213Z,40.53
2022-12-15T16:33:16.319Z,46.05
2022-12-15T16:35:45.003Z,34.22
2022-12-15T16:38:15.449Z,36.80
2022-12-15T16:40:43.057Z,39.22
2022-12-15T16:43:13.238Z,42.30
2022-12-15T16:45:43.247Z,41.28
2022-12-15T16:48:11.199Z,45.95
2022-12-15T16:50:41.014Z,41.85
2022-12-15T16:53:13.327Z,48.90
2022-12-15T16:55:40.918Z,44.28
2022-12-15T16:58:11.917Z,40.38
2022-12-15T17:00:39.468Z,45.60
2022-12-15T17:03:07.358Z,41.05
2022-12-15T17:05:36.293Z,57.58
2022-12-15T17:08:07.405Z,49.03
2022-12-15T17:10:35.520Z,54.50
2022-12-15T17:13:05.920Z,47.97
2022-12-15T17:15:33.503Z,50.88
2022-12-15T17:18:01.160Z,52.38
2022-12-15T17:20:30.870Z,46.97
2022-12-15T17:23:03.445Z,51.65
2022-12-15T17:26:09.388Z,52.97
2022-12-15T17:28:25.221Z,51.25
2022-12-15T17:30:52.829Z,51.15
2022-12-15T17:33:21.396Z,48.15
2022-12-15T17:35:53.549Z,57.38
2022-12-15T17:38:45.039Z,49.67
2022-12-15T17:41:35.090Z,50.42
2022-12-15T17:44:31.647Z,58.13
2022-12-15T17:46:52.222Z,65.50
2022-12-15T17:49:19.785Z,52.10
2022-12-15T17:51:48.513Z,54.65
2022-12-15T17:54:20.509Z,53.13
2022-12-15T17:56:50.261Z,47.95
2022-12-15T17:59:21.333Z,52.42
2022-12-15T18:01:49.455Z,57.53
2022-12-15T18:04:17.417Z,52.53
2022-12-15T18:06:48.727Z,65.28
2022-12-15T18:09:17.961Z,52.42
2022-12-15T18:11:47.020Z,52.05
2022-12-15T18:14:17.111Z,63.38
2022-12-15T18:16:44.991Z,58.10
2022-12-15T18:19:12.915Z,57.35
2022-12-15T18:21:40.603Z,56.20
2022-12-15T18:24:12.146Z,57.88
2022-12-15T18:26:39.945Z,67.25
2022-12-15T18:29:13.270Z,50.42
2022-12-15T18:31:45.103Z,62.28
2022-12-15T18:34:13.913Z,59.00
2022-12-15T18:36:42.265Z,59.78
2022-12-15T18:39:21.096Z,57.30
2022-12-15T18:41:57.320Z,65.50
2022-12-15T18:44:29.212Z,54.38
2022-12-15T18:47:07.788Z,61.60
2022-12-15T18:49:35.565Z,53.30
2022-12-15T18:52:05.612Z,49.97
2022-12-15T18:54:33.240Z,56.70
2022-12-15T18:57:00.820Z,57.03
2022-12-15T18:59:28.399Z,63.90
2022-12-15T19:01:59.244Z,56.45
2022-12-15T19:04:28.246Z,55.72
2022-12-15T19:06:57.732Z,54.35
2022-12-15T19:09:27.220Z,65.90
2022-12-15T19:12:23.374Z,54.28
2022-12-15T19:14:51.953Z,56.35
2022-12-15T19:17:37.980Z,52.10
2022-12-15T19:20:25.875Z,54.72
2022-12-15T19:22:53.798Z,65.13
2022-12-15T19:25:25.897Z,64.63
2022-12-15T19:27:59.330Z,58.33
2022-12-15T19:30:27.645Z,61.33
2022-12-15T19:32:57.417Z,54.28
2022-12-15T19:35:27.321Z,63.08
2022-12-15T19:37:56.627Z,61.05
2022-12-15T19:40:27.493Z,63.33
2022-12-15T19:42:55.671Z,61.45
2022-12-15T19:45:25.689Z,71.07
2022-12-15T19:47:54.198Z,58.42
2022-12-15T19:50:23.373Z,54.90
2022-12-15T19:52:53.211Z,54.10
2022-12-15T19:55:26.679Z,66.90
2022-12-15T19:57:54.834Z,62.63
2022-12-15T20:00:24.948Z,50.67
2022-12-15T20:02:58.497Z,76.38
2022-12-15T20:05:28.063Z,70.30
2022-12-15T20:07:57.068Z,63.00
2022-12-15T20:10:31.908Z,71.40
2022-12-15T20:13:03.391Z,60.00
2022-12-15T20:15:37.261Z,68.95
2022-12-15T20:18:05.187Z,62.72
2022-12-15T20:20:33.316Z,63.28
2022-12-15T20:23:04.361Z,58.05
2022-12-15T20:25:34.347Z,68.07
2022-12-15T20:28:08.327Z,72.22
2022-12-15T20:30:36.973Z,67.72
2022-12-15T20:33:05.035Z,65.63
2022-12-15T20:35:35.126Z,67.95
2022-12-15T20:38:26.305Z,55.17
2022-12-15T20:40:56.781Z,48.80
2022-12-15T20:43:28.306Z,61.33
2022-12-15T20:46:02.441Z,48.53
2022-12-15T20:51:01.830Z,42.75
2022-12-15T20:53:36.465Z,43.90
2022-12-15T20:56:04.142Z,52.83
2022-12-15T20:58:33.406Z,52.67
2022-12-15T21:01:01.584Z,54.03
2022-12-15T21:03:41.276Z,49.33
2022-12-15T21:06:22.531Z,44.88
2022-12-15T21:08:55.765Z,51.10
2022-12-15T21:11:25.196Z,49.90
2022-12-15T21:14:18.620Z,47.00
2022-12-15T21:16:51.090Z,56.67
2022-12-15T21:19:22.044Z,44.13
2022-12-15T21:21:56.723Z,44.65
2022-12-15T21:24:26.846Z,48.42
2022-12-15T21:26:57.651Z,51.88
2022-12-15T21:29:29.740Z,52.25
2022-12-15T21:31:57.450Z,54.42
2022-12-15T21:34:26.845Z,63.90
2022-12-15T21:36:55.545Z,59.60
2022-12-15T21:39:29.299Z,66.50
2022-12-15T21:42:02.014Z,56.28
2022-12-15T21:44:29.568Z,60.15
2022-12-15T21:46:57.126Z,65.18
2022-12-15T21:49:24.334Z,53.53
2022-12-15T21:51:52.829Z,56.17
2022-12-15T21:54:31.159Z,62.10
2022-12-15T21:57:01.096Z,65.50
2022-12-15T21:59:32.572Z,51.33
2022-12-15T22:02:00.860Z,65.03
2022-12-15T22:04:29.627Z,63.28
2022-12-15T22:06:57.855Z,58.22
2022-12-15T22:09:25.417Z,72.40
2022-12-15T22:11:54.941Z,51.78
2022-12-15T22:14:25.871Z,52.65
2022-12-15T22:16:53.457Z,52.20
2022-12-15T22:19:21.429Z,47.78
2022-12-15T22:21:48.988Z,54.58
2022-12-15T22:24:19.255Z,63.28
2022-12-15T22:26:47.818Z,61.30
2022-12-15T22:29:17.559Z,49.13
2022-12-15T22:31:46.394Z,53.25
2022-12-15T22:34:14.927Z,54.42
2022-12-15T22:36:42.701Z,59.90
2022-12-15T22:39:11.323Z,46.75
2022-12-15T22:41:41.071Z,48.90
2022-12-15T22:44:27.016Z,55.97
2022-12-15T22:46:57.253Z,57.40
2022-12-15T22:49:26.671Z,54.45
2022-12-15T22:51:54.998Z,53.22
2022-12-15T22:54:23.411Z,47.00
2022-12-15T22:56:53.483Z,51.05
2022-12-15T22:59:25.934Z,55.58
2022-12-15T23:01:53.519Z,51.50
2022-12-15T23:04:23.637Z,44.80
2022-12-15T23:06:51.715Z,44.75
2022-12-15T23:09:19.294Z,52.38
2022-12-15T23:11:45.884Z,48.90
2022-12-15T23:14:14.301Z,57.55
2022-12-15T23:16:40.897Z,62.13
2022-12-15T23:19:08.916Z,53.42
2022-12-15T23:21:37.899Z,51.15
2022-12-15T23:24:05.519Z,55.92
2022-12-15T23:26:33.059Z,56.78
2022-12-15T23:29:00.569Z,60.35
2022-12-15T23:31:28.142Z,55.88
2022-12-15T23:33:55.750Z,62.13
2022-12-15T23:36:23.270Z,63.58
2022-12-15T23:38:55.006Z,63.90
2022-12-15T23:41:22.565Z,53.60
2022-12-15T23:43:50.050Z,67.50
2022-12-15T23:46:18.630Z,67.47
2022-12-15T23:48:46.271Z,77.43
2022-12-15T23:51:14.899Z,78.30
2022-12-15T23:53:43.163Z,80.03
2022-12-15T23:56:13.229Z,100.43
2022-12-15T23:58:41.402Z,102.30
